createdAt,value
2023-01-20T00:01:43.446Z,5.82
2023-01-20T00:04:11.053Z,4.82
2023-01-20T00:06:38.101Z,5.57
2023-01-20T00:09:06.447Z,6.20
2023-01-20T00:11:33.738Z,5.63
2023-01-20T00:14:02.526Z,6.40
2023-01-20T00:16:31.937Z,7.28
2023-01-20T00:18:59.560Z,8.02
2023-01-20T00:21:26.968Z,6.57
2023-01-20T00:23:54.005Z,7.78
2023-01-20T00:26:24.344Z,7.55
2023-01-20T00:28:54.930Z,8.75
2023-01-20T00:31:24.659Z,9.63
2023-01-20T00:33:54.443Z,10.27
2023-01-20T00:36:23.303Z,11.55
2023-01-20T00:38:50.652Z,12.75
2023-01-20T00:41:18.825Z,11.77
2023-01-20T00:43:46.288Z,13.00
2023-01-20T00:46:14.311Z,13.20
2023-01-20T00:48:42.283Z,12.95
2023-01-20T00:51:10.331Z,12.57
2023-01-20T00:53:37.294Z,13.75
2023-01-20T00:56:05.276Z,13.38
2023-01-20T00:58:32.265Z,15.85
2023-01-20T01:00:59.685Z,14.75
2023-01-20T01:03:30.196Z,12.82
2023-01-20T01:06:15.582Z,13.10
2023-01-20T01:08:44.159Z,13.20
2023-01-20T01:11:13.085Z,14.73
2023-01-20T01:13:40.030Z,13.75
2023-01-20T01:16:14.199Z,15.65
2023-01-20T01:18:42.457Z,13.93
2023-01-20T01:21:13.699Z,16.15
2023-01-20T01:23:40.665Z,16.95
2023-01-20T01:26:08.109Z,17.15
2023-01-20T01:28:34.972Z,16.75
2023-01-20T01:31:04.391Z,18.75
2023-01-20T01:33:32.316Z,19.27
2023-01-20T01:36:02.498Z,20.33
2023-01-20T01:38:29.790Z,20.27
2023-01-20T01:40:57.249Z,22.13
2023-01-20T01:43:31.414Z,22.85
2023-01-20T01:45:59.568Z,23.00
2023-01-20T01:48:39.222Z,21.80
2023-01-20T01:51:31.810Z,21.25
2023-01-20T01:54:15.284Z,20.42
2023-01-20T01:56:44.453Z,21.13
2023-01-20T01:59:13.911Z,23.75
2023-01-20T02:01:48.407Z,22.33
2023-01-20T02:04:21.067Z,24.08
2023-01-20T02:07:00.116Z,25.83
2023-01-20T02:09:28.746Z,23.60
2023-01-20T02:12:03.457Z,24.67
2023-01-20T02:14:41.232Z,24.33
2023-01-20T02:17:28.968Z,26.85
2023-01-20T02:20:16.771Z,22.75
2023-01-20T02:23:39.954Z,27.58
2023-01-20T02:26:44.339Z,24.65
2023-01-20T02:30:05.524Z,25.88
2023-01-20T02:33:10.535Z,25.20
2023-01-20T02:35:53.059Z,27.55
2023-01-20T02:38:45.902Z,26.60
2023-01-20T02:41:41.428Z,26.25
2023-01-20T02:44:24.970Z,29.58
2023-01-20T02:47:28.781Z,27.38
2023-01-20T02:50:23.349Z,27.15
2023-01-20T02:52:56.615Z,26.38
2023-01-20T02:55:39.062Z,28.90
2023-01-20T02:58:16.764Z,29.20
2023-01-20T03:00:51.948Z,26.42
2023-01-20T03:03:28.887Z,30.67
2023-01-20T03:05:59.775Z,28.90
2023-01-20T03:08:32.726Z,33.25
2023-01-20T03:11:06.711Z,32.88
2023-01-20T03:13:55.543Z,32.53
2023-01-20T03:16:26.403Z,33.78
2023-01-20T03:18:55.565Z,31.50
2023-01-20T03:21:23.230Z,32.13
2023-01-20T03:23:59.703Z,32.55
2023-01-20T03:26:26.499Z,34.42
2023-01-20T03:28:54.695Z,33.28
2023-01-20T03:31:29.257Z,35.00
2023-01-20T03:34:01.453Z,40.20
2023-01-20T03:36:31.780Z,37.67
2023-01-20T03:39:00.658Z,39.35
2023-01-20T03:41:52.308Z,40.33
2023-01-20T03:45:06.946Z,40.17
2023-01-20T03:48:02.305Z,36.83
2023-01-20T03:50:50.447Z,39.20
2023-01-20T03:53:37.505Z,39.20
2023-01-20T03:56:16.944Z,37.67
2023-01-20T03:58:50.296Z,42.63
2023-01-20T04:01:22.598Z,36.67
2023-01-20T04:03:53.458Z,38.85
2023-01-20T04:06:25.390Z,39.15
2023-01-20T04:09:02.493Z,38.25
2023-01-20T04:11:29.371Z,37.92
2023-01-20T04:13:56.469Z,43.88
2023-01-20T04:16:25.401Z,39.60
2023-01-20T04:18:53.018Z,42.10
2023-01-20T04:21:36.039Z,41.63
2023-01-20T04:24:29.051Z,42.55
2023-01-20T04:26:55.857Z,43.83
2023-01-20T04:29:22.653Z,41.65
2023-01-20T04:31:49.492Z,38.33
2023-01-20T04:34:16.907Z,45.83
2023-01-20T04:36:43.842Z,42.95
2023-01-20T04:39:10.775Z,45.65
2023-01-20T04:41:37.710Z,44.45
2023-01-20T04:44:04.566Z,43.13
2023-01-20T04:46:31.396Z,44.88
2023-01-20T04:48:58.357Z,46.83
2023-01-20T04:51:25.283Z,52.03
2023-01-20T04:53:57.452Z,49.25
2023-01-20T04:56:25.081Z,49.35
2023-01-20T04:58:52.435Z,50.28
2023-01-20T05:01:19.416Z,49.58
2023-01-20T05:03:46.271Z,50.03
2023-01-20T05:06:13.417Z,51.80
2023-01-20T05:08:40.872Z,52.15
2023-01-20T05:11:08.032Z,55.92
2023-01-20T05:13:38.953Z,55.13
2023-01-20T05:16:10.669Z,51.88
2023-01-20T05:18:37.785Z,55.47
2023-01-20T05:21:07.878Z,54.97
2023-01-20T05:23:35.093Z,53.60
2023-01-20T05:26:01.932Z,57.58
2023-01-20T05:28:28.718Z,54.72
2023-01-20T05:30:55.613Z,55.13
2023-01-20T05:33:22.448Z,56.92
2023-01-20T05:35:49.324Z,56.85
2023-01-20T05:38:16.097Z,53.17
2023-01-20T05:40:42.895Z,61.42
2023-01-20T05:43:11.656Z,60.42
2023-01-20T05:45:39.768Z,59.42
2023-01-20T05:48:06.572Z,60.30
2023-01-20T05:50:33.329Z,62.58
2023-01-20T05:53:00.349Z,62.60
2023-01-20T05:55:27.229Z,62.67
2023-01-20T05:57:53.965Z,65.80
2023-01-20T06:00:21.385Z,67.05
2023-01-20T06:02:48.179Z,63.00
2023-01-20T06:05:15.461Z,60.25
2023-01-20T06:07:42.481Z,59.40
2023-01-20T06:10:10.272Z,60.92
2023-01-20T06:12:37.099Z,54.75
2023-01-20T06:15:04.950Z,54.08
2023-01-20T06:17:31.798Z,51.00
2023-01-20T06:19:58.712Z,58.90
2023-01-20T06:22:26.466Z,52.13
2023-01-20T06:24:53.513Z,54.90
2023-01-20T06:27:20.733Z,49.40
2023-01-20T06:29:47.720Z,51.85
2023-01-20T06:32:14.515Z,51.30
2023-01-20T06:34:41.399Z,54.45
2023-01-20T06:37:08.334Z,59.05
2023-01-20T06:39:35.095Z,54.40
2023-01-20T06:42:02.102Z,53.83
2023-01-20T06:44:28.969Z,57.83
2023-01-20T06:46:57.878Z,58.58
2023-01-20T06:49:24.729Z,56.25
2023-01-20T06:51:51.974Z,59.13
2023-01-20T06:54:18.821Z,58.95
2023-01-20T06:56:45.921Z,59.72
2023-01-20T06:59:13.351Z,63.50
2023-01-20T07:01:40.715Z,63.53
2023-01-20T07:04:08.347Z,64.15
2023-01-20T07:06:40.223Z,60.33
2023-01-20T07:09:11.012Z,61.58
2023-01-20T07:11:38.298Z,59.67
2023-01-20T07:14:06.437Z,60.45
2023-01-20T07:16:34.630Z,54.75
2023-01-20T07:19:01.805Z,59.25
2023-01-20T07:21:28.853Z,64.18
2023-01-20T07:23:55.768Z,56.58
2023-01-20T07:26:26.407Z,57.75
2023-01-20T07:28:53.603Z,59.40
2023-01-20T07:31:27.362Z,57.03
2023-01-20T07:33:58.280Z,59.78
2023-01-20T07:36:25.358Z,54.53
2023-01-20T07:38:53.336Z,58.58
2023-01-20T07:41:21.608Z,58.22
2023-01-20T07:43:51.489Z,54.60
2023-01-20T07:46:20.119Z,58.45
2023-01-20T07:48:47.287Z,54.97
2023-01-20T07:51:16.952Z,56.72
2023-01-20T07:53:47.947Z,55.17
2023-01-20T07:56:21.309Z,56.15
2023-01-20T07:58:50.486Z,53.45
2023-01-20T08:01:29.667Z,56.22
2023-01-20T08:04:00.507Z,53.28
2023-01-20T08:06:27.908Z,52.40
2023-01-20T08:08:58.620Z,49.58
2023-01-20T08:11:25.802Z,53.47
2023-01-20T08:13:53.514Z,50.17
2023-01-20T08:16:20.589Z,52.80
2023-01-20T08:18:47.850Z,55.58
2023-01-20T08:21:32.035Z,53.75
2023-01-20T08:24:01.710Z,51.33
2023-01-20T08:26:31.822Z,53.85
2023-01-20T08:29:08.305Z,51.00
2023-01-20T08:31:36.551Z,50.13
2023-01-20T08:34:04.101Z,51.10
2023-01-20T08:36:35.379Z,49.42
2023-01-20T08:39:05.272Z,49.95
2023-01-20T08:41:36.765Z,46.15
2023-01-20T08:44:06.808Z,47.83
2023-01-20T08:46:34.192Z,42.90
2023-01-20T08:49:01.225Z,39.67
2023-01-20T08:51:32.056Z,42.65
2023-01-20T08:53:59.900Z,38.75
2023-01-20T08:56:27.894Z,37.63
2023-01-20T08:58:57.332Z,35.92
2023-01-20T09:01:31.535Z,36.67
2023-01-20T09:04:05.814Z,38.22
2023-01-20T09:06:45.095Z,38.67
2023-01-20T09:09:14.971Z,37.97
2023-01-20T09:11:44.683Z,35.53
2023-01-20T09:14:11.717Z,37.08
2023-01-20T09:16:38.698Z,34.63
2023-01-20T09:19:05.573Z,36.40
2023-01-20T09:21:32.476Z,34.28
2023-01-20T09:23:59.863Z,31.13
2023-01-20T09:26:35.978Z,34.08
2023-01-20T09:29:13.941Z,34.22
2023-01-20T09:31:52.561Z,31.33
2023-01-20T09:34:24.596Z,33.10
2023-01-20T09:37:20.351Z,29.45
2023-01-20T09:40:06.774Z,31.27
2023-01-20T09:43:36.331Z,30.77
2023-01-20T09:46:17.018Z,28.00
2023-01-20T09:49:30.467Z,29.90
2023-01-20T09:52:30.907Z,28.63
2023-01-20T09:55:14.056Z,28.58
2023-01-20T09:57:48.779Z,27.90
2023-01-20T10:00:23.641Z,25.52
2023-01-20T10:03:00.410Z,25.38
2023-01-20T10:05:37.520Z,25.30
2023-01-20T10:08:41.550Z,24.35
2023-01-20T10:11:15.204Z,24.17
2023-01-20T10:13:56.306Z,21.90
2023-01-20T10:17:10.289Z,25.33
2023-01-20T10:19:58.876Z,24.35
2023-01-20T10:23:21.897Z,22.52
2023-01-20T10:26:22.488Z,23.38
2023-01-20T10:29:00.482Z,22.15
2023-01-20T10:31:33.369Z,20.10
2023-01-20T10:34:12.666Z,23.17
2023-01-20T10:36:44.446Z,18.83
2023-01-20T10:39:31.264Z,19.05
2023-01-20T10:42:10.222Z,18.55
2023-01-20T10:44:37.304Z,19.77
2023-01-20T10:47:31.900Z,16.98
2023-01-20T10:50:43.764Z,15.85
2023-01-20T10:53:47.758Z,14.90
2023-01-20T10:56:36.376Z,14.07
2023-01-20T10:59:20.496Z,14.90
2023-01-20T11:01:59.440Z,15.45
2023-01-20T11:04:35.956Z,12.68
2023-01-20T11:07:03.660Z,12.50
2023-01-20T11:09:39.341Z,12.95
2023-01-20T11:12:20.592Z,13.52
2023-01-20T11:14:48.700Z,12.38
2023-01-20T11:17:20.556Z,12.20
2023-01-20T11:19:54.804Z,12.73
2023-01-20T11:22:34.190Z,12.20
2023-01-20T11:25:04.889Z,12.05
2023-01-20T11:27:44.572Z,13.68
2023-01-20T11:30:33.865Z,12.45
2023-01-20T11:33:25.249Z,12.65
2023-01-20T11:36:16.473Z,13.43
2023-01-20T11:38:50.380Z,14.10
2023-01-20T11:41:25.042Z,15.38
2023-01-20T11:43:56.161Z,13.90
2023-01-20T11:46:33.716Z,14.57
2023-01-20T11:49:17.762Z,14.95
2023-01-20T11:51:56.574Z,15.15
2023-01-20T11:54:28.086Z,15.23
2023-01-20T11:57:07.619Z,15.30
2023-01-20T11:59:46.060Z,13.60
2023-01-20T12:02:12.823Z,17.17
2023-01-20T12:05:15.664Z,15.45
2023-01-20T12:07:47.235Z,18.25
2023-01-20T12:10:22.092Z,17.88
2023-01-20T12:12:58.014Z,16.45
2023-01-20T12:15:31.240Z,16.77
2023-01-20T12:18:22.066Z,16.40
2023-01-20T12:21:08.040Z,17.08
2023-01-20T12:23:45.677Z,16.13
2023-01-20T12:26:16.597Z,17.40
2023-01-20T12:29:22.957Z,16.55
2023-01-20T12:31:50.521Z,16.85
2023-01-20T12:34:29.931Z,16.65
2023-01-20T12:37:51.036Z,17.70
2023-01-20T12:40:45.954Z,20.10
2023-01-20T12:43:31.949Z,19.33
2023-01-20T12:46:25.799Z,18.20
2023-01-20T12:49:01.884Z,22.90
2023-01-20T12:51:57.964Z,21.27
2023-01-20T12:55:31.013Z,21.23
2023-01-20T12:58:14.976Z,23.10
2023-01-20T13:00:47.722Z,54.40
2023-01-20T13:03:34.121Z,28.23
2023-01-20T13:06:41.346Z,25.70
2023-01-20T13:09:45.429Z,22.08
2023-01-20T13:12:33.182Z,25.27
2023-01-20T13:15:26.714Z,28.02
2023-01-20T13:18:25.879Z,26.40
2023-01-20T13:20:54.751Z,27.05
2023-01-20T13:23:36.074Z,32.10
2023-01-20T13:26:05.721Z,26.90
2023-01-20T13:28:32.859Z,28.27
2023-01-20T13:31:02.273Z,30.75
2023-01-20T13:33:37.095Z,27.02
2023-01-20T13:36:17.344Z,26.15
2023-01-20T13:38:47.641Z,26.30
2023-01-20T13:41:53.369Z,25.17
2023-01-20T13:44:42.165Z,27.77
2023-01-20T13:47:11.023Z,25.80
2023-01-20T13:49:51.755Z,26.30
2023-01-20T13:52:50.403Z,26.05
2023-01-20T13:55:45.974Z,26.95
2023-01-20T13:58:27.064Z,24.17
2023-01-20T14:01:07.667Z,25.48
2023-01-20T14:03:39.779Z,26.17
2023-01-20T14:06:28.444Z,25.60
2023-01-20T14:08:55.369Z,25.90
2023-01-20T14:11:27.598Z,26.45
2023-01-20T14:14:05.675Z,24.33
2023-01-20T14:16:35.361Z,27.88
2023-01-20T14:19:27.447Z,26.15
2023-01-20T14:21:58.226Z,24.92
2023-01-20T14:24:30.030Z,30.27
2023-01-20T14:27:23.109Z,26.90
2023-01-20T14:29:53.424Z,28.95
2023-01-20T14:32:32.190Z,28.30
2023-01-20T14:35:00.450Z,28.52
2023-01-20T14:37:35.226Z,27.35
2023-01-20T14:40:20.795Z,27.48
2023-01-20T14:43:02.328Z,29.15
2023-01-20T14:45:32.683Z,28.33
2023-01-20T14:48:02.482Z,26.77
2023-01-20T14:50:30.060Z,26.75
2023-01-20T14:52:57.303Z,26.63
2023-01-20T14:55:40.841Z,26.05
2023-01-20T14:58:15.731Z,26.00
2023-01-20T15:00:45.961Z,25.80
2023-01-20T15:03:24.795Z,24.15
2023-01-20T15:06:09.798Z,24.15
2023-01-20T15:08:37.309Z,23.73
2023-01-20T15:11:18.819Z,23.35
2023-01-20T15:13:54.732Z,26.25
2023-01-20T15:16:41.532Z,23.98
2023-01-20T15:19:14.989Z,24.40
2023-01-20T15:21:44.257Z,27.52
2023-01-20T15:24:31.784Z,27.58
2023-01-20T15:27:01.619Z,27.42
2023-01-20T15:29:34.941Z,23.52
2023-01-20T15:32:10.919Z,23.73
2023-01-20T15:34:37.937Z,22.35
2023-01-20T15:37:18.420Z,25.15
2023-01-20T15:39:45.633Z,24.08
2023-01-20T15:42:13.146Z,26.38
2023-01-20T15:44:40.059Z,27.17
2023-01-20T15:47:34.702Z,25.73
2023-01-20T15:50:01.624Z,24.85
2023-01-20T15:52:28.568Z,26.63
2023-01-20T15:54:55.418Z,24.67
2023-01-20T15:57:22.327Z,27.27
2023-01-20T15:59:50.120Z,23.85
2023-01-20T16:02:22.560Z,24.50
2023-01-20T16:04:50.260Z,24.67
2023-01-20T16:07:20.390Z,26.60
2023-01-20T16:09:47.507Z,25.38
2023-01-20T16:12:17.331Z,24.20
2023-01-20T16:14:45.529Z,26.75
2023-01-20T16:17:21.408Z,26.58
2023-01-20T16:19:49.835Z,23.80
2023-01-20T16:22:17.273Z,24.55
2023-01-20T16:24:44.334Z,24.77
2023-01-20T16:27:22.050Z,26.58
2023-01-20T16:29:50.511Z,34.78
2023-01-20T16:32:21.858Z,30.23
2023-01-20T16:34:49.565Z,28.83
2023-01-20T16:37:16.442Z,24.90
2023-01-20T16:39:43.306Z,23.58
2023-01-20T16:42:15.077Z,22.63
2023-01-20T16:44:42.013Z,25.00
2023-01-20T16:47:08.981Z,27.15
2023-01-20T16:49:36.200Z,25.00
2023-01-20T16:52:03.363Z,23.63
2023-01-20T16:54:30.298Z,24.05
2023-01-20T16:56:57.124Z,23.75
2023-01-20T16:59:24.073Z,24.77
2023-01-20T17:01:51.053Z,24.52
2023-01-20T17:04:17.961Z,24.45
2023-01-20T17:06:44.863Z,22.48
2023-01-20T17:09:11.838Z,23.10
2023-01-20T17:11:40.397Z,26.10
2023-01-20T17:14:11.124Z,34.95
2023-01-20T17:16:40.025Z,24.92
2023-01-20T17:19:07.218Z,24.00
2023-01-20T17:21:38.320Z,23.60
2023-01-20T17:24:07.220Z,21.95
2023-01-20T17:26:34.683Z,21.27
2023-01-20T17:29:04.605Z,19.08
2023-01-20T17:31:35.355Z,18.88
2023-01-20T17:34:06.709Z,20.55
2023-01-20T17:36:37.656Z,21.52
2023-01-20T17:39:06.718Z,22.30
2023-01-20T17:41:34.749Z,21.42
2023-01-20T17:44:01.811Z,24.20
2023-01-20T17:46:30.375Z,22.88
2023-01-20T17:49:06.686Z,24.20
2023-01-20T17:51:33.952Z,23.75
2023-01-20T17:54:03.983Z,23.35
2023-01-20T17:56:31.382Z,23.63
2023-01-20T17:58:58.334Z,30.13
2023-01-20T18:01:31.360Z,41.13
2023-01-20T18:03:59.560Z,26.48
2023-01-20T18:06:28.384Z,27.45
2023-01-20T18:08:59.255Z,30.35
2023-01-20T18:11:30.568Z,31.80
2023-01-20T18:13:59.174Z,29.48
2023-01-20T18:16:32.936Z,33.00
2023-01-20T18:19:00.180Z,33.25
2023-01-20T18:21:33.762Z,32.95
2023-01-20T18:24:01.587Z,34.65
2023-01-20T18:26:33.011Z,34.55
2023-01-20T18:29:03.800Z,34.00
2023-01-20T18:31:34.511Z,36.97
2023-01-20T18:34:05.766Z,39.30
2023-01-20T18:36:42.036Z,37.28
2023-01-20T18:39:22.232Z,40.33
2023-01-20T18:41:50.939Z,40.20
2023-01-20T18:44:19.463Z,43.45
2023-01-20T18:46:46.747Z,42.67
2023-01-20T18:49:17.371Z,41.17
2023-01-20T18:51:44.224Z,43.15
2023-01-20T18:54:17.338Z,47.28
2023-01-20T18:56:44.995Z,40.22
2023-01-20T18:59:12.704Z,45.08
2023-01-20T19:01:40.964Z,43.72
2023-01-20T19:04:11.816Z,47.50
2023-01-20T19:06:42.424Z,45.22
2023-01-20T19:09:10.763Z,48.08
2023-01-20T19:11:41.687Z,49.85
2023-01-20T19:14:13.112Z,48.78
2023-01-20T19:16:49.092Z,47.97
2023-01-20T19:19:17.794Z,46.15
2023-01-20T19:21:45.165Z,52.05
2023-01-20T19:24:20.034Z,46.72
2023-01-20T19:26:47.479Z,49.40
2023-01-20T19:29:17.100Z,48.97
2023-01-20T19:31:44.335Z,49.22
2023-01-20T19:34:11.778Z,52.25
2023-01-20T19:36:39.366Z,49.97
2023-01-20T19:39:06.739Z,52.72
2023-01-20T19:41:35.733Z,47.88
2023-01-20T19:44:06.541Z,53.90
2023-01-20T19:46:38.595Z,52.13
2023-01-20T19:49:05.940Z,50.80
2023-01-20T19:51:33.012Z,55.92
2023-01-20T19:54:01.112Z,53.70
2023-01-20T19:56:32.165Z,52.80
2023-01-20T19:59:00.912Z,51.45
2023-01-20T20:01:36.572Z,56.60
2023-01-20T20:04:10.566Z,50.83
2023-01-20T20:06:48.881Z,50.78
2023-01-20T20:09:23.041Z,49.08
2023-01-20T20:11:50.242Z,50.13
2023-01-20T20:14:20.792Z,53.60
2023-01-20T20:16:49.100Z,49.45
2023-01-20T20:19:19.694Z,49.08
2023-01-20T20:21:46.994Z,50.28
2023-01-20T20:24:16.672Z,46.78
2023-01-20T20:26:46.095Z,48.55
2023-01-20T20:29:15.924Z,51.67
2023-01-20T20:31:43.057Z,52.63
2023-01-20T20:34:17.791Z,51.03
2023-01-20T20:36:45.129Z,50.67
2023-01-20T20:39:17.763Z,56.00
2023-01-20T20:41:45.416Z,51.35
2023-01-20T20:44:13.045Z,54.78
2023-01-20T20:46:40.054Z,51.42
2023-01-20T20:49:06.910Z,52.47
2023-01-20T20:51:34.433Z,51.80
2023-01-20T20:54:03.269Z,52.17
2023-01-20T20:56:33.483Z,48.10
2023-01-20T20:59:03.748Z,51.70
2023-01-20T21:01:34.308Z,54.67
2023-01-20T21:04:03.330Z,50.03
2023-01-20T21:06:31.898Z,50.75
2023-01-20T21:08:59.588Z,52.15
2023-01-20T21:11:26.566Z,50.95
2023-01-20T21:13:53.467Z,51.15
2023-01-20T21:16:23.144Z,50.85
2023-01-20T21:18:52.629Z,52.28
2023-01-20T21:21:20.144Z,49.88
2023-01-20T21:23:53.268Z,49.67
2023-01-20T21:26:24.439Z,51.75
2023-01-20T21:28:51.438Z,53.65
2023-01-20T21:31:22.470Z,51.33
2023-01-20T21:33:58.172Z,51.00
2023-01-20T21:36:27.374Z,54.08
2023-01-20T21:38:54.673Z,56.90
2023-01-20T21:41:21.877Z,58.75
2023-01-20T21:44:07.405Z,48.83
2023-01-20T21:46:39.171Z,51.42
2023-01-20T21:49:26.423Z,48.83
2023-01-20T21:52:13.449Z,52.88
2023-01-20T21:54:41.156Z,50.05
2023-01-20T21:57:08.463Z,50.45
2023-01-20T21:59:35.282Z,52.17
2023-01-20T22:02:02.084Z,51.83
2023-01-20T22:04:28.948Z,55.92
2023-01-20T22:06:55.827Z,51.30
2023-01-20T22:09:22.884Z,50.78
2023-01-20T22:11:50.290Z,51.55
2023-01-20T22:14:17.576Z,54.08
2023-01-20T22:16:44.507Z,51.45
2023-01-20T22:19:14.865Z,50.70
2023-01-20T22:21:41.784Z,54.17
2023-01-20T22:24:11.061Z,49.00
2023-01-20T22:26:38.128Z,47.35
2023-01-20T22:29:05.105Z,50.17
2023-01-20T22:31:34.055Z,52.92
2023-01-20T22:34:06.143Z,53.92
2023-01-20T22:36:34.109Z,53.17
2023-01-20T22:39:01.535Z,55.75
2023-01-20T22:41:28.674Z,50.25
2023-01-20T22:43:55.722Z,52.33
2023-01-20T22:46:25.541Z,50.90
2023-01-20T22:48:52.316Z,50.85
2023-01-20T22:51:22.583Z,50.15
2023-01-20T22:53:49.830Z,50.38
2023-01-20T22:56:24.075Z,49.70
2023-01-20T22:58:51.452Z,52.05
2023-01-20T23:01:27.979Z,52.55
2023-01-20T23:04:02.152Z,52.85
2023-01-20T23:06:34.586Z,55.97
2023-01-20T23:09:06.553Z,53.20
2023-01-20T23:11:36.277Z,58.13
2023-01-20T23:14:03.185Z,50.47
2023-01-20T23:16:30.024Z,54.22
2023-01-20T23:18:56.843Z,52.72
2023-01-20T23:21:24.406Z,55.83
2023-01-20T23:23:54.569Z,53.55
2023-01-20T23:26:26.740Z,53.63
2023-01-20T23:28:55.377Z,58.10
2023-01-20T23:31:25.243Z,58.60
2023-01-20T23:33:54.050Z,59.33
2023-01-20T23:36:24.932Z,54.08
2023-01-20T23:38:55.760Z,55.05
2023-01-20T23:41:23.827Z,55.17
2023-01-20T23:43:50.945Z,56.47
2023-01-20T23:46:17.768Z,55.55
2023-01-20T23:48:47.749Z,58.28
2023-01-20T23:51:15.215Z,55.30
2023-01-20T23:53:42.132Z,54.55
2023-01-20T23:56:21.753Z,51.13
2023-01-20T23:58:48.665Z,50.83
